Time;durP1;ratioP1;P1;durP2;ratioP2;P2;SDS_P1;SDS_P2;PMS_P1;PMS_P2;Temp;Humidity;BMP_temperature;BMP_pressure;BME280_temperature;BME280_humidity;BME280_pressure;Samples;Min_cycle;Max_cycle;Signal;HPM_P1;HPM_P2
2024/01/16 00:00:57;;;;;;;87.85;38.88;;;2.40;71.40;;;;;;5015141;28;20065;-72
2024/01/16 00:03:23;;;;;;;89.50;41.25;;;2.20;71.40;;;;;;5014233;28;20077;-69
2024/01/16 00:05:49;;;;;;;80.60;37.33;;;2.30;71.70;;;;;;5015164;28;20049;-69
2024/01/16 00:08:15;;;;;;;76.65;36.50;;;2.30;71.90;;;;;;5015132;28;20018;-71
2024/01/16 00:10:41;;;;;;;80.38;38.85;;;2.20;71.90;;;;;;5015154;28;20033;-72
2024/01/16 00:13:07;;;;;;;84.20;39.17;;;2.20;72.00;;;;;;5015017;28;20049;-70
2024/01/16 00:15:33;;;;;;;81.18;38.63;;;2.20;71.90;;;;;;5015106;28;20371;-68
2024/01/16 00:17:59;;;;;;;69.47;32.85;;;2.20;71.70;;;;;;5015365;28;20048;-71
2024/01/16 00:20:25;;;;;;;76.60;36.80;;;2.20;71.80;;;;;;5015593;28;20061;-69
2024/01/16 00:22:51;;;;;;;85.90;41.35;;;2.20;71.50;;;;;;5015495;28;20108;-67
2024/01/16 00:25:19;;;;;;;72.25;37.65;;;2.20;71.80;;;;;;5015019;28;20061;-71
2024/01/16 00:27:46;;;;;;;76.78;39.45;;;2.20;71.80;;;;;;5014889;28;20363;-68
2024/01/16 00:30:12;;;;;;;79.80;37.20;;;2.10;71.40;;;;;;5014986;28;20439;-72
2024/01/16 00:32:39;;;;;;;82.28;38.88;;;2.10;71.50;;;;;;5015409;28;20109;-68
2024/01/16 00:35:05;;;;;;;74.15;37.38;;;2.10;71.60;;;;;;5015485;28;20030;-68
2024/01/16 00:37:31;;;;;;;76.85;37.70;;;2.00;71.80;;;;;;5015144;28;20030;-71
2024/01/16 00:39:57;;;;;;;77.07;36.78;;;2.00;71.70;;;;;;5015414;28;20478;-70
2024/01/16 00:42:23;;;;;;;78.90;38.95;;;2.00;71.80;;;;;;5014772;28;20363;-69
2024/01/16 00:44:49;;;;;;;81.72;37.50;;;2.00;71.60;;;;;;5015083;28;20032;-65
2024/01/16 00:47:15;;;;;;;71.43;34.63;;;1.90;71.50;;;;;;5014779;28;20113;-67
2024/01/16 00:49:41;;;;;;;76.57;35.90;;;1.90;71.60;;;;;;5017773;28;20032;-67
2024/01/16 00:52:06;;;;;;;67.15;31.15;;;1.80;71.50;;;;;;5018305;28;20384;-71
2024/01/16 00:54:32;;;;;;;71.95;35.13;;;1.80;71.90;;;;;;5018881;28;20022;-67
2024/01/16 00:56:59;;;;;;;76.93;36.35;;;1.80;72.10;;;;;;5018791;28;20045;-70
2024/01/16 00:59:26;;;;;;;78.47;35.95;;;1.90;72.00;;;;;;5018201;28;20030;-71
2024/01/16 01:01:52;;;;;;;70.40;34.38;;;1.80;71.90;;;;;;5018381;28;20060;-68
2024/01/16 01:04:18;;;;;;;76.47;34.63;;;1.80;71.70;;;;;;5018663;28;20026;-71
2024/01/16 01:06:44;;;;;;;71.25;34.92;;;1.80;71.70;;;;;;5018308;28;20036;-68
2024/01/16 01:09:12;;;;;;;66.70;33.72;;;1.80;71.80;;;;;;5018043;28;20030;-71
2024/01/16 01:11:39;;;;;;;64.40;32.20;;;1.80;71.60;;;;;;5017670;28;20057;-66
2024/01/16 01:14:05;;;;;;;67.38;32.03;;;1.70;71.80;;;;;;5017971;28;20093;-72
2024/01/16 01:16:31;;;;;;;61.92;30.15;;;1.70;71.80;;;;;;5018124;28;20050;-67
2024/01/16 01:18:57;;;;;;;74.10;34.08;;;1.70;71.90;;;;;;5017930;28;20064;-70
2024/01/16 01:21:23;;;;;;;67.85;33.45;;;1.70;71.90;;;;;;5018291;28;20381;-70
2024/01/16 01:23:49;;;;;;;62.35;29.38;;;1.70;72.20;;;;;;5017763;28;20359;-70
2024/01/16 01:26:17;;;;;;;64.15;33.20;;;1.70;71.80;;;;;;5018241;28;20029;-68
2024/01/16 01:28:44;;;;;;;63.53;30.00;;;1.60;71.80;;;;;;5017855;28;20030;-72
2024/01/16 01:31:11;;;;;;;52.53;24.15;;;1.60;72.10;;;;;;5017511;28;20034;-68
2024/01/16 01:33:38;;;;;;;57.65;27.15;;;1.60;72.30;;;;;;5018323;28;20038;-69
2024/01/16 01:36:04;;;;;;;46.80;21.83;;;1.60;72.50;;;;;;5017568;28;20448;-70
2024/01/16 01:38:30;;;;;;;44.22;19.33;;;1.70;72.20;;;;;;5017756;28;20113;-67
2024/01/16 01:40:56;;;;;;;42.42;17.00;;;1.90;72.10;;;;;;5017389;28;20416;-67
2024/01/16 01:43:25;;;;;;;36.60;16.65;;;1.90;72.20;;;;;;5017676;28;20454;-68
2024/01/16 01:46:10;;;;;;;35.85;14.88;;;2.00;71.90;;;;;;5017355;28;20033;-71
2024/01/16 01:48:37;;;;;;;27.63;13.93;;;2.10;71.80;;;;;;5017556;28;20040;-67
2024/01/16 01:51:03;;;;;;;35.72;17.40;;;2.20;71.80;;;;;;5017455;28;20026;-67
2024/01/16 01:53:32;;;;;;;42.58;19.08;;;2.30;71.80;;;;;;5017271;28;20071;-71
2024/01/16 01:55:59;;;;;;;37.25;18.08;;;2.40;71.40;;;;;;5017133;28;20105;-69
2024/01/16 01:58:25;;;;;;;42.88;21.15;;;2.40;71.20;;;;;;5017146;28;20036;-67
2024/01/16 02:00:51;;;;;;;29.67;15.23;;;2.50;71.20;;;;;;5016462;28;20037;-68
2024/01/16 02:03:17;;;;;;;33.63;15.43;;;2.50;71.10;;;;;;5017073;28;20030;-66
2024/01/16 02:05:44;;;;;;;32.75;15.65;;;2.50;71.10;;;;;;5017489;28;20428;-70
2024/01/16 02:08:10;;;;;;;29.55;12.65;;;2.50;71.00;;;;;;5016904;28;20029;-69
2024/01/16 02:10:39;;;;;;;27.02;12.95;;;2.60;70.90;;;;;;5016910;28;20101;-68
2024/01/16 02:13:05;;;;;;;27.67;13.43;;;2.60;70.90;;;;;;5016711;28;20042;-68
2024/01/16 02:15:31;;;;;;;29.95;13.27;;;2.60;70.90;;;;;;5017287;28;20375;-70
2024/01/16 02:17:57;;;;;;;25.90;11.25;;;2.70;70.70;;;;;;5016804;28;20030;-67
2024/01/16 02:20:24;;;;;;;21.27;10.45;;;2.80;70.60;;;;;;5017018;28;20026;-71
2024/01/16 02:22:54;;;;;;;20.58;9.95;;;2.80;70.70;;;;;;5016829;28;20032;-69
2024/01/16 02:25:20;;;;;;;22.80;11.52;;;2.90;70.60;;;;;;5016579;28;20038;-71
2024/01/16 02:27:47;;;;;;;22.98;11.38;;;3.00;70.30;;;;;;5016725;28;20026;-67
2024/01/16 02:30:13;;;;;;;24.42;11.27;;;3.00;70.10;;;;;;5017056;28;20033;-71
2024/01/16 02:32:39;;;;;;;19.80;10.38;;;3.00;69.80;;;;;;5016415;28;20355;-66
2024/01/16 02:35:05;;;;;;;22.58;11.43;;;3.00;69.80;;;;;;5016705;28;20149;-68
2024/01/16 02:37:31;;;;;;;22.08;10.40;;;3.00;69.80;;;;;;5016428;28;20025;-67
2024/01/16 02:39:57;;;;;;;27.25;10.95;;;3.00;69.60;;;;;;5016394;28;20026;-70
2024/01/16 02:42:23;;;;;;;24.52;11.90;;;3.00;69.70;;;;;;5016263;28;20104;-70
2024/01/16 02:44:49;;;;;;;22.23;11.40;;;3.00;69.80;;;;;;5016270;28;20153;-68
2024/01/16 02:47:15;;;;;;;24.50;11.25;;;3.10;69.80;;;;;;5016522;28;20022;-69
2024/01/16 02:49:41;;;;;;;26.60;10.88;;;3.10;69.90;;;;;;5016653;28;20479;-66
2024/01/16 02:52:07;;;;;;;28.65;12.77;;;3.20;69.90;;;;;;5016276;28;20145;-66
2024/01/16 02:54:33;;;;;;;20.63;10.60;;;3.20;70.00;;;;;;5016611;28;20049;-70
2024/01/16 02:56:58;;;;;;;29.23;13.50;;;3.30;69.70;;;;;;5016093;28;20029;-69
2024/01/16 02:59:24;;;;;;;30.92;15.15;;;3.30;69.50;;;;;;5016022;28;20026;-67
2024/01/16 03:01:50;;;;;;;31.17;14.63;;;3.30;69.40;;;;;;5015921;28;20076;-68
2024/01/16 03:04:16;;;;;;;33.03;16.13;;;3.20;69.40;;;;;;5015967;28;20054;-71
2024/01/16 03:06:42;;;;;;;40.40;19.75;;;3.20;69.40;;;;;;5015937;28;20048;-68
2024/01/16 03:09:08;;;;;;;33.40;16.90;;;3.20;69.20;;;;;;5016317;28;20108;-68
2024/01/16 03:11:34;;;;;;;40.35;19.88;;;3.10;69.20;;;;;;5013974;28;20129;-71
2024/01/16 03:14:00;;;;;;;46.05;23.25;;;3.10;69.40;;;;;;5015824;28;20026;-71
2024/01/16 03:16:27;;;;;;;51.85;24.02;;;3.00;69.40;;;;;;5016058;28;20022;-67
2024/01/16 03:18:53;;;;;;;47.20;24.80;;;2.90;69.40;;;;;;5014869;28;20030;-71
2024/01/16 03:21:19;;;;;;;47.35;23.02;;;2.90;69.50;;;;;;5015854;28;20045;-67
2024/01/16 03:23:45;;;;;;;47.95;23.65;;;2.80;69.60;;;;;;5015667;28;20072;-67
2024/01/16 03:26:14;;;;;;;45.67;23.00;;;2.80;69.90;;;;;;5015619;28;20060;-69
2024/01/16 03:28:41;;;;;;;55.65;25.15;;;2.80;69.80;;;;;;5015782;28;20084;-70
2024/01/16 03:31:07;;;;;;;50.55;24.80;;;2.70;70.10;;;;;;5015517;28;20018;-66
2024/01/16 03:33:34;;;;;;;52.58;25.25;;;2.60;70.30;;;;;;5015467;28;20055;-66
2024/01/16 03:36:01;;;;;;;47.92;24.60;;;2.60;70.30;;;;;;5015758;28;20037;-66
2024/01/16 03:38:27;;;;;;;49.92;23.70;;;2.50;70.40;;;;;;5015743;28;20041;-70
2024/01/16 03:40:53;;;;;;;50.63;25.73;;;2.50;70.60;;;;;;5015388;28;20455;-67
2024/01/16 03:43:18;;;;;;;46.50;22.30;;;2.40;70.50;;;;;;5015927;28;20034;-70
2024/01/16 03:45:44;;;;;;;47.67;23.30;;;2.40;70.60;;;;;;5015673;28;20486;-68
2024/01/16 03:48:10;;;;;;;51.15;25.88;;;2.40;70.50;;;;;;5015341;28;20026;-69
2024/01/16 03:50:36;;;;;;;48.83;24.70;;;2.30;70.80;;;;;;5015337;28;20395;-68
2024/01/16 03:53:06;;;;;;;54.50;25.70;;;2.30;70.40;;;;;;5015509;28;20424;-71
2024/01/16 03:55:31;;;;;;;52.47;24.00;;;2.30;70.80;;;;;;5015590;28;20432;-66
2024/01/16 03:57:57;;;;;;;55.10;25.70;;;2.20;70.70;;;;;;5015307;28;20080;-66
2024/01/16 04:00:24;;;;;;;57.85;26.80;;;2.20;70.80;;;;;;5015783;28;20057;-71
2024/01/16 04:02:50;;;;;;;56.67;25.00;;;2.10;70.80;;;;;;5015198;28;20352;-68
2024/01/16 04:05:16;;;;;;;45.95;23.88;;;2.10;70.70;;;;;;5015218;28;20025;-67
2024/01/16 04:07:42;;;;;;;56.67;26.70;;;2.10;71.00;;;;;;5015115;28;20040;-67
2024/01/16 04:10:08;;;;;;;46.13;24.05;;;2.10;71.20;;;;;;5015144;28;20022;-70
2024/01/16 04:12:34;;;;;;;49.97;24.02;;;2.00;70.70;;;;;;5014833;28;20250;-71
2024/01/16 04:15:00;;;;;;;43.45;21.92;;;2.00;70.60;;;;;;5015142;28;20108;-70
2024/01/16 04:17:26;;;;;;;46.75;21.63;;;1.90;71.00;;;;;;5015089;28;20068;-68
2024/01/16 04:19:52;;;;;;;44.63;21.45;;;1.90;71.30;;;;;;5015333;28;20029;-67
2024/01/16 04:22:18;;;;;;;40.03;19.77;;;1.80;71.50;;;;;;5015022;28;20667;-68
2024/01/16 04:24:44;;;;;;;44.25;22.23;;;1.90;71.30;;;;;;5018611;28;20026;-68
2024/01/16 04:27:11;;;;;;;42.05;20.85;;;1.80;71.50;;;;;;5018753;28;20356;-66
2024/01/16 04:29:37;;;;;;;43.85;22.35;;;1.80;71.40;;;;;;5017754;28;20026;-68
2024/01/16 04:32:04;;;;;;;38.28;18.75;;;1.80;71.10;;;;;;5018655;28;20329;-69
2024/01/16 04:34:30;;;;;;;37.20;18.70;;;1.70;71.50;;;;;;5017707;28;20113;-71
2024/01/16 04:36:56;;;;;;;42.10;18.08;;;1.70;71.40;;;;;;5019245;28;20026;-68
2024/01/16 04:39:25;;;;;;;35.65;16.27;;;1.70;71.50;;;;;;5018915;28;20040;-71
2024/01/16 04:41:50;;;;;;;35.47;17.00;;;1.70;71.50;;;;;;5018544;28;20038;-70
2024/01/16 04:44:16;;;;;;;32.90;15.95;;;1.80;71.40;;;;;;5018595;28;20030;-66
2024/01/16 04:46:42;;;;;;;33.22;15.32;;;1.80;71.30;;;;;;5018765;28;20022;-70
2024/01/16 04:49:08;;;;;;;34.75;16.40;;;1.80;71.70;;;;;;5018624;28;20030;-67
2024/01/16 04:51:34;;;;;;;39.63;16.23;;;1.80;71.40;;;;;;5018635;28;20026;-72
2024/01/16 04:54:00;;;;;;;32.45;15.70;;;1.80;71.10;;;;;;5018626;28;20065;-68
2024/01/16 04:56:26;;;;;;;28.92;13.88;;;1.80;70.70;;;;;;5018570;28;20026;-65
2024/01/16 04:58:52;;;;;;;29.88;14.85;;;1.70;70.90;;;;;;5018210;28;20118;-70
2024/01/16 05:01:18;;;;;;;30.45;13.75;;;1.70;70.70;;;;;;5018136;28;20054;-67
2024/01/16 05:03:44;;;;;;;25.75;12.10;;;1.60;70.80;;;;;;5017227;28;20117;-68
2024/01/16 05:06:17;;;;;;;25.95;11.85;;;1.60;71.20;;;;;;5018146;28;20026;-70
2024/01/16 05:08:43;;;;;;;22.40;10.70;;;1.70;71.20;;;;;;5018083;28;20097;-68
2024/01/16 05:11:09;;;;;;;23.95;11.73;;;1.70;71.10;;;;;;5017955;28;20053;-70
2024/01/16 05:13:35;;;;;;;21.98;10.20;;;1.80;71.10;;;;;;5018350;28;20022;-69
2024/01/16 05:16:01;;;;;;;20.92;10.27;;;1.90;71.00;;;;;;5018183;28;20022;-67
2024/01/16 05:18:27;;;;;;;20.77;10.57;;;2.00;70.90;;;;;;5017940;28;20149;-70
2024/01/16 05:20:55;;;;;;;20.70;9.68;;;2.00;70.80;;;;;;5017783;28;20022;-66
2024/01/16 05:23:22;;;;;;;16.25;8.43;;;2.10;70.80;;;;;;5018061;28;20168;-66
2024/01/16 05:25:49;;;;;;;19.27;9.82;;;2.10;70.60;;;;;;5018010;28;20041;-69
2024/01/16 05:28:15;;;;;;;17.80;8.98;;;2.20;70.30;;;;;;5018197;28;20105;-67
2024/01/16 05:30:41;;;;;;;20.75;9.88;;;2.30;70.30;;;;;;5017624;28;20355;-68
2024/01/16 05:33:08;;;;;;;20.75;9.65;;;2.40;70.10;;;;;;5017653;28;20102;-69
2024/01/16 05:35:34;;;;;;;20.00;9.18;;;2.40;70.20;;;;;;5016968;28;20044;-70
2024/01/16 05:38:00;;;;;;;20.77;9.77;;;2.50;70.30;;;;;;5018115;28;20109;-66
2024/01/16 05:40:26;;;;;;;20.75;9.48;;;2.50;70.00;;;;;;5017503;28;20022;-70
2024/01/16 05:42:52;;;;;;;21.00;10.50;;;2.60;69.80;;;;;;5017340;28;20069;-66
2024/01/16 05:45:19;;;;;;;25.95;11.68;;;2.70;69.50;;;;;;5017683;28;20125;-67
2024/01/16 05:47:45;;;;;;;19.88;8.95;;;2.70;69.50;;;;;;5017194;28;20038;-67
2024/01/16 05:50:11;;;;;;;24.40;10.27;;;2.70;69.30;;;;;;5017351;28;20018;-67
2024/01/16 05:52:37;;;;;;;21.95;10.20;;;2.80;69.20;;;;;;5017194;28;20087;-69
2024/01/16 05:55:04;;;;;;;22.90;10.70;;;2.80;69.10;;;;;;5017488;28;20029;-67
2024/01/16 05:57:33;;;;;;;20.80;9.68;;;2.90;69.20;;;;;;5017133;28;20333;-66
2024/01/16 06:00:03;;;;;;;18.73;9.25;;;2.90;69.20;;;;;;5017080;28;20478;-67
2024/01/16 06:02:29;;;;;;;16.90;8.48;;;2.90;69.10;;;;;;5016925;28;20037;-70
2024/01/16 06:04:55;;;;;;;19.63;8.32;;;3.00;69.10;;;;;;5017573;28;20037;-69
2024/01/16 06:07:21;;;;;;;18.73;8.68;;;3.00;69.00;;;;;;5017206;28;20057;-68
2024/01/16 06:09:47;;;;;;;17.45;8.13;;;3.10;68.80;;;;;;5017417;28;20112;-68
2024/01/16 06:12:13;;;;;;;18.63;8.27;;;3.10;68.70;;;;;;5016786;28;20045;-70
2024/01/16 06:14:39;;;;;;;20.80;9.68;;;3.20;68.50;;;;;;5016911;28;20058;-66
2024/01/16 06:17:06;;;;;;;19.63;8.98;;;3.20;68.80;;;;;;5017143;28;20107;-71
2024/01/16 06:19:32;;;;;;;20.45;10.02;;;3.20;68.80;;;;;;5016991;28;20149;-69
2024/01/16 06:22:01;;;;;;;19.58;10.15;;;3.30;68.60;;;;;;5016914;28;20045;-67
2024/01/16 06:24:27;;;;;;;18.20;8.82;;;3.30;68.30;;;;;;5016948;28;20447;-72
2024/01/16 06:26:53;;;;;;;22.98;9.75;;;3.30;68.20;;;;;;5017155;28;20328;-69
2024/01/16 06:29:19;;;;;;;17.95;10.70;;;3.30;68.30;;;;;;5016710;28;20451;-70
2024/01/16 06:31:44;;;;;;;17.95;9.77;;;3.30;68.10;;;;;;5017231;28;20025;-70
2024/01/16 06:34:10;;;;;;;18.40;9.82;;;3.30;68.10;;;;;;5016763;28;20431;-69
2024/01/16 06:36:37;;;;;;;22.08;10.43;;;3.40;67.90;;;;;;5016469;28;20030;-71
2024/01/16 06:39:03;;;;;;;20.58;10.40;;;3.40;67.80;;;;;;5016928;28;20025;-67
2024/01/16 06:41:29;;;;;;;22.73;11.15;;;3.40;67.80;;;;;;5016537;28;20065;-68
2024/01/16 06:43:56;;;;;;;23.25;10.25;;;3.40;67.10;;;;;;5016856;28;20072;-70
2024/01/16 06:46:22;;;;;;;19.60;9.70;;;3.40;67.40;;;;;;5016199;28;20057;-70
2024/01/16 06:48:48;;;;;;;16.13;8.30;;;3.40;67.40;;;;;;5016139;28;20026;-66
2024/01/16 06:51:15;;;;;;;15.95;8.70;;;3.40;67.50;;;;;;5016437;28;20042;-65
2024/01/16 06:53:41;;;;;;;17.48;8.82;;;3.40;67.40;;;;;;5016107;28;20064;-68
2024/01/16 06:56:08;;;;;;;19.38;10.02;;;3.40;67.50;;;;;;5016631;28;20072;-69
2024/01/16 06:58:35;;;;;;;19.88;10.20;;;3.40;67.50;;;;;;5016373;28;20191;-67
2024/01/16 07:01:01;;;;;;;21.50;10.52;;;3.50;67.30;;;;;;5016259;28;20030;-69
2024/01/16 07:03:28;;;;;;;26.35;13.20;;;3.40;67.10;;;;;;5016493;28;20105;-66
2024/01/16 07:05:54;;;;;;;29.77;14.98;;;3.40;67.20;;;;;;5015965;28;20025;-70
2024/01/16 07:08:20;;;;;;;29.58;15.85;;;3.40;67.10;;;;;;5016364;28;20045;-68
2024/01/16 07:10:46;;;;;;;31.08;15.45;;;3.40;66.80;;;;;;5269106;23;20379;-71
2024/01/16 07:13:13;;;;;;;37.83;18.10;;;3.30;66.90;;;;;;5016536;28;20097;-70
2024/01/16 07:15:39;;;;;;;32.92;17.55;;;3.30;67.00;;;;;;5016447;28;20156;-71
2024/01/16 07:18:05;;;;;;;36.88;17.75;;;3.30;67.10;;;;;;5016130;28;20097;-71
2024/01/16 07:20:31;;;;;;;33.45;15.27;;;3.30;67.40;;;;;;5006192;28;20037;-71
2024/01/16 07:22:57;;;;;;;31.20;16.77;;;3.40;67.40;;;;;;4996714;28;20035;-71
2024/01/16 07:25:23;;;;;;;28.27;14.60;;;3.40;67.30;;;;;;4996406;28;20030;-70
2024/01/16 07:27:49;;;;;;;26.88;15.52;;;3.50;67.00;;;;;;4996079;28;20026;-71
2024/01/16 07:30:15;;;;;;;29.48;14.77;;;3.50;67.30;;;;;;4996262;28;20118;-69
2024/01/16 07:32:42;;;;;;;25.77;13.15;;;3.50;67.30;;;;;;4996060;28;20018;-68
2024/01/16 07:35:08;;;;;;;31.75;15.20;;;3.60;67.40;;;;;;4996020;28;20027;-68
2024/01/16 07:37:34;;;;;;;33.00;15.07;;;3.70;67.30;;;;;;4996505;28;20023;-70
2024/01/16 07:40:00;;;;;;;33.83;15.85;;;3.70;67.30;;;;;;4996304;28;20122;-69
2024/01/16 07:42:26;;;;;;;24.10;13.68;;;3.80;67.30;;;;;;4996215;28;20077;-70
2024/01/16 07:44:52;;;;;;;25.58;13.13;;;3.90;67.10;;;;;;4995946;28;20035;-70
2024/01/16 07:47:18;;;;;;;25.55;12.02;;;3.90;67.00;;;;;;5231327;23;20066;-71
2024/01/16 07:49:44;;;;;;;24.35;11.75;;;4.00;66.80;;;;;;4957012;28;20360;-70
2024/01/16 07:52:12;;;;;;;25.42;11.65;;;4.20;66.70;;;;;;4957403;28;20066;-72
2024/01/16 07:54:38;;;;;;;22.02;11.82;;;4.20;66.60;;;;;;4957145;28;20031;-72
2024/01/16 07:57:04;;;;;;;26.20;13.25;;;4.40;66.30;;;;;;4957049;28;20019;-67
2024/01/16 07:59:30;;;;;;;22.35;12.32;;;4.40;66.30;;;;;;4960052;28;20038;-68
2024/01/16 08:01:56;;;;;;;24.00;13.25;;;4.50;66.00;;;;;;4961569;28;20023;-73
2024/01/16 08:04:23;;;;;;;21.92;12.70;;;4.60;66.40;;;;;;4961253;28;20027;-72
2024/01/16 08:06:49;;;;;;;22.95;13.00;;;4.70;65.80;;;;;;4961153;28;20114;-69
2024/01/16 08:09:15;;;;;;;23.08;12.68;;;4.80;65.40;;;;;;4960855;28;20023;-71
2024/01/16 08:11:41;;;;;;;22.40;11.95;;;4.90;65.70;;;;;;4960900;28;20039;-71
2024/01/16 08:14:06;;;;;;;26.02;13.93;;;4.90;65.70;;;;;;4960868;28;20023;-72
2024/01/16 08:16:32;;;;;;;25.23;13.90;;;5.00;65.80;;;;;;4961030;28;20082;-68
2024/01/16 08:18:58;;;;;;;28.60;13.98;;;5.10;65.10;;;;;;4961008;28;20445;-72
2024/01/16 08:21:24;;;;;;;26.67;12.15;;;5.20;65.30;;;;;;4960715;28;20465;-69
2024/01/16 08:23:50;;;;;;;21.60;10.77;;;5.40;65.10;;;;;;4960655;28;20409;-70
2024/01/16 08:26:16;;;;;;;22.83;11.40;;;5.40;64.80;;;;;;4960565;28;20082;-70
2024/01/16 08:28:42;;;;;;;22.80;11.30;;;5.50;64.50;;;;;;4960774;28;20031;-70
2024/01/16 08:31:08;;;;;;;19.27;10.52;;;5.60;64.70;;;;;;4960800;28;20023;-72
2024/01/16 08:33:34;;;;;;;21.25;10.20;;;5.70;64.30;;;;;;4960570;28;20078;-71
2024/01/16 08:36:00;;;;;;;24.02;10.82;;;5.80;63.90;;;;;;4960430;28;20063;-69
2024/01/16 08:38:26;;;;;;;17.65;9.07;;;5.90;61.50;;;;;;4960470;28;20393;-72
2024/01/16 08:40:52;;;;;;;20.38;10.40;;;6.10;61.70;;;;;;4960413;28;20504;-70
2024/01/16 08:43:18;;;;;;;26.85;14.98;;;6.20;63.30;;;;;;4960586;28;20042;-70
2024/01/16 08:45:44;;;;;;;30.23;17.42;;;6.30;62.50;;;;;;4960571;28;20031;-71
2024/01/16 08:48:12;;;;;;;26.38;15.43;;;6.40;62.40;;;;;;4959902;28;20070;-72
2024/01/16 08:50:38;;;;;;;24.85;14.05;;;6.50;62.90;;;;;;4960202;28;20063;-72
2024/01/16 08:53:04;;;;;;;21.98;11.93;;;6.70;62.20;;;;;;4960726;28;20027;-69
2024/01/16 08:55:30;;;;;;;17.42;10.18;;;6.80;62.90;;;;;;4960162;28;20020;-72
2024/01/16 08:57:56;;;;;;;18.42;10.43;;;6.90;61.40;;;;;;4960057;28;20335;-71
2024/01/16 09:00:22;;;;;;;34.10;14.32;;;7.10;60.30;;;;;;4960566;28;20023;-72
2024/01/16 09:02:48;;;;;;;24.20;12.38;;;7.20;61.10;;;;;;4960231;28;20046;-69
2024/01/16 09:05:15;;;;;;;24.17;12.13;;;7.30;61.50;;;;;;4959990;28;20357;-70
2024/01/16 09:07:41;;;;;;;22.55;11.00;;;7.40;61.00;;;;;;4959775;28;20031;-69
2024/01/16 09:10:08;;;;;;;23.52;10.32;;;7.50;60.80;;;;;;4958756;28;20027;-72
2024/01/16 09:12:34;;;;;;;25.25;11.77;;;7.60;61.40;;;;;;4959848;28;20122;-71
2024/01/16 09:14:59;;;;;;;24.35;12.02;;;7.60;61.40;;;;;;4959798;28;20106;-71
2024/01/16 09:17:26;;;;;;;21.13;10.93;;;7.70;59.80;;;;;;4959665;28;20043;-70
2024/01/16 09:19:52;;;;;;;23.20;12.00;;;7.80;59.90;;;;;;4959953;28;20019;-73
2024/01/16 09:22:18;;;;;;;21.02;11.07;;;7.90;58.60;;;;;;4959639;28;20031;-70
2024/01/16 09:24:44;;;;;;;20.08;10.50;;;7.90;60.00;;;;;;4960144;28;20035;-69
2024/01/16 09:27:10;;;;;;;24.95;11.98;;;8.00;60.10;;;;;;4960012;28;20062;-69
2024/01/16 09:29:36;;;;;;;27.23;13.82;;;8.00;60.10;;;;;;4959458;28;20051;-73
2024/01/16 09:32:02;;;;;;;19.50;10.15;;;8.10;60.50;;;;;;4959445;28;20027;-72
2024/01/16 09:34:28;;;;;;;19.25;10.35;;;8.20;60.10;;;;;;4959363;28;20019;-70
2024/01/16 09:36:59;;;;;;;17.92;10.20;;;8.30;59.10;;;;;;4959450;28;20061;-71
2024/01/16 09:39:24;;;;;;;20.20;9.50;;;8.40;59.00;;;;;;4959389;28;20048;-69
2024/01/16 09:41:50;;;;;;;19.65;9.98;;;8.40;59.30;;;;;;4959881;28;20099;-69
2024/01/16 09:44:16;;;;;;;17.13;8.98;;;8.50;59.40;;;;;;4959824;28;20027;-72
2024/01/16 09:46:48;;;;;;;19.05;10.25;;;8.50;59.80;;;;;;4959120;28;20381;-70
2024/01/16 09:49:15;;;;;;;19.75;10.07;;;8.60;55.90;;;;;;4959417;28;20035;-70
2024/01/16 09:51:43;;;;;;;19.88;11.32;;;8.60;54.90;;;;;;4958201;28;20118;-71
2024/01/16 09:54:09;;;;;;;19.15;10.60;;;8.60;54.50;;;;;;4959330;28;20027;-70
2024/01/16 09:56:41;;;;;;;17.88;10.93;;;8.50;53.80;;;;;;4959216;28;20336;-70
2024/01/16 09:59:09;;;;;;;22.02;12.18;;;8.50;54.30;;;;;;4959598;28;20019;-72
2024/01/16 10:01:38;;;;;;;21.63;11.95;;;8.50;55.60;;;;;;4958946;28;20038;-70
2024/01/16 10:04:04;;;;;;;22.38;11.63;;;8.50;54.60;;;;;;4959182;28;20094;-71
2024/01/16 10:06:33;;;;;;;20.48;12.43;;;8.50;56.10;;;;;;4959198;28;20163;-70
2024/01/16 10:08:59;;;;;;;22.38;12.13;;;8.60;56.20;;;;;;4958723;28;20023;-70
2024/01/16 10:11:25;;;;;;;17.92;11.13;;;8.60;54.90;;;;;;5220518;23;20067;-70
2024/01/16 10:13:51;;;;;;;18.38;10.52;;;8.60;55.40;;;;;;4959213;28;20103;-70
2024/01/16 10:16:17;;;;;;;21.35;10.43;;;8.60;54.10;;;;;;4958631;28;20135;-70
2024/01/16 10:18:43;;;;;;;17.27;10.13;;;8.60;54.30;;;;;;4958641;28;20038;-71
2024/01/16 10:21:22;;;;;;;16.95;10.52;;;8.50;54.60;;;;;;4958059;28;20042;-71
2024/01/16 10:23:49;;;;;;;20.10;11.25;;;8.40;54.40;;;;;;4958511;28;20051;-68
2024/01/16 10:26:15;;;;;;;18.35;9.98;;;8.40;55.70;;;;;;4958725;28;20034;-70
2024/01/16 10:28:42;;;;;;;13.52;7.28;;;8.40;54.40;;;;;;4958564;28;20028;-70
2024/01/16 10:31:14;;;;;;;14.10;7.22;;;8.30;53.60;;;;;;4957314;28;20501;-71
2024/01/16 10:33:40;;;;;;;14.60;7.10;;;8.30;52.80;;;;;;4959098;28;20053;-72
2024/01/16 10:36:16;;;;;;;14.07;8.50;;;8.20;53.10;;;;;;4958208;28;20035;-70
2024/01/16 10:38:44;;;;;;;14.65;8.10;;;8.10;53.60;;;;;;4958141;29;20126;-68
2024/01/16 10:41:16;;;;;;;14.57;7.85;;;8.10;53.30;;;;;;4958040;28;20461;-72
2024/01/16 10:43:46;;;;;;;12.63;7.10;;;8.10;53.20;;;;;;4958088;28;20023;-72
2024/01/16 10:46:17;;;;;;;14.70;7.80;;;8.00;53.60;;;;;;4958277;29;20462;-72
2024/01/16 10:49:10;;;;;;;12.30;7.53;;;7.90;53.60;;;;;;4957950;28;20050;-71
2024/01/16 10:51:36;;;;;;;12.90;7.35;;;7.90;54.80;;;;;;4955991;28;20057;-71
2024/01/16 10:54:10;;;;;;;14.98;7.82;;;8.00;55.60;;;;;;4958205;28;20100;-70
2024/01/16 10:56:37;;;;;;;12.98;7.25;;;8.10;56.40;;;;;;4957903;28;20032;-69
2024/01/16 10:59:14;;;;;;;13.43;7.65;;;8.20;55.30;;;;;;4958109;28;20033;-71
2024/01/16 11:01:56;;;;;;;12.00;6.57;;;8.30;55.10;;;;;;4957860;28;20054;-70
2024/01/16 11:04:24;;;;;;;13.82;7.38;;;8.30;53.50;;;;;;4958109;28;20042;-70
2024/01/16 11:06:54;;;;;;;14.43;7.38;;;8.30;53.60;;;;;;4958264;28;20042;-71
2024/01/16 11:09:21;;;;;;;13.32;7.30;;;8.30;54.00;;;;;;4957913;28;20023;-71
2024/01/16 11:11:47;;;;;;;12.55;7.55;;;8.30;52.70;;;;;;4957455;28;20051;-67
2024/01/16 11:14:18;;;;;;;13.23;7.13;;;8.20;53.10;;;;;;4958080;28;20368;-70
2024/01/16 11:16:47;;;;;;;15.15;7.75;;;8.20;53.80;;;;;;4958061;28;20102;-67
2024/01/16 11:19:14;;;;;;;15.00;7.72;;;8.30;54.30;;;;;;4957786;28;20059;-68
2024/01/16 11:21:41;;;;;;;15.90;7.72;;;8.40;53.80;;;;;;4957509;28;20031;-68
2024/01/16 11:24:07;;;;;;;12.90;7.43;;;8.40;54.50;;;;;;4957424;28;20054;-69
2024/01/16 11:26:40;;;;;;;13.65;8.00;;;8.40;53.10;;;;;;4957640;28;20031;-70
2024/01/16 11:29:49;;;;;;;14.07;7.23;;;8.40;54.10;;;;;;4957572;28;20468;-68
2024/01/16 11:32:34;;;;;;;11.85;6.78;;;8.60;53.30;;;;;;4917378;29;20295;-68
2024/01/16 11:35:01;;;;;;;15.18;7.03;;;8.60;53.50;;;;;;4918049;29;20416;-69
2024/01/16 11:37:36;;;;;;;12.48;7.40;;;8.70;53.10;;;;;;4917536;29;20044;-67
2024/01/16 11:40:20;;;;;;;14.93;6.60;;;8.80;52.10;;;;;;4917627;29;20111;-68
2024/01/16 11:42:48;;;;;;;13.98;6.55;;;8.80;53.10;;;;;;4917337;29;20115;-69
2024/01/16 11:45:40;;;;;;;13.32;7.38;;;8.90;53.80;;;;;;4917303;29;20060;-68
2024/01/16 11:48:10;;;;;;;13.32;7.20;;;8.90;52.10;;;;;;4879830;29;20131;-67
2024/01/16 11:50:36;;;;;;;15.02;6.65;;;9.00;51.90;;;;;;4879814;29;20475;-71
2024/01/16 11:53:02;;;;;;;14.35;6.38;;;9.20;52.80;;;;;;4879846;29;20052;-71
2024/01/16 11:55:31;;;;;;;12.27;6.70;;;9.30;51.00;;;;;;4880276;29;20033;-70
2024/01/16 11:58:05;;;;;;;12.70;6.50;;;9.40;51.30;;;;;;4879613;29;20056;-68
2024/01/16 12:00:33;;;;;;;10.40;6.25;;;9.40;51.40;;;;;;4863998;29;20503;-71
2024/01/16 12:03:04;;;;;;;12.20;6.35;;;9.50;49.60;;;;;;4882774;29;20037;-69
2024/01/16 12:05:35;;;;;;;10.70;5.88;;;9.50;49.70;;;;;;4898858;29;20088;-68
2024/01/16 12:08:03;;;;;;;11.82;6.38;;;9.60;50.00;;;;;;4898522;29;20025;-68
2024/01/16 12:10:32;;;;;;;11.32;6.43;;;9.70;48.50;;;;;;4898124;29;20055;-67
2024/01/16 12:12:59;;;;;;;12.10;6.30;;;9.70;48.60;;;;;;4899013;29;20040;-71
2024/01/16 12:15:26;;;;;;;10.88;6.07;;;9.70;48.30;;;;;;4898248;29;20418;-70
2024/01/16 12:17:57;;;;;;;12.00;6.43;;;9.70;47.60;;;;;;4898234;29;20161;-70
2024/01/16 12:20:24;;;;;;;11.27;6.65;;;9.90;48.10;;;;;;4898176;29;20033;-70
2024/01/16 12:23:01;;;;;;;11.63;6.40;;;9.90;49.10;;;;;;4898449;29;20423;-69
2024/01/16 12:25:28;;;;;;;11.02;5.97;;;9.90;47.50;;;;;;4942728;29;20204;-70
2024/01/16 12:28:00;;;;;;;10.25;6.13;;;9.90;45.10;;;;;;4956718;28;20040;-69
2024/01/16 12:30:36;;;;;;;10.38;6.15;;;9.90;46.50;;;;;;4957232;28;20122;-69
2024/01/16 12:33:07;;;;;;;15.40;6.47;;;10.00;48.00;;;;;;4957387;28;20034;-68
2024/01/16 12:35:38;;;;;;;11.52;6.35;;;10.00;46.70;;;;;;4956756;28;20027;-67
2024/01/16 12:38:06;;;;;;;11.20;5.88;;;10.00;47.30;;;;;;4957039;28;20085;-70
2024/01/16 12:40:33;;;;;;;11.55;5.90;;;10.00;44.70;;;;;;4956896;28;20031;-68